Time;durP1;ratioP1;P1;durP2;ratioP2;P2;SDS_P1;SDS_P2;PMS_P1;PMS_P2;Temp;Humidity;BMP_temperature;BMP_pressure;BME280_temperature;BME280_humidity;BME280_pressure;Samples;Min_cycle;Max_cycle;Signal;HPM_P1;HPM_P2
2022/08/19 00:01:30;;;;;;;6.93;6.33;;;22.80;99.90;;;;;;5033904;28;20572;-74
2022/08/19 00:04:00;;;;;;;6.00;5.43;;;22.80;99.90;;;;;;5033916;28;20560;-75
2022/08/19 00:06:28;;;;;;;5.77;5.27;;;22.80;99.90;;;;;;5033842;28;20596;-74
2022/08/19 00:08:55;;;;;;;6.67;5.57;;;22.80;99.90;;;;;;5033913;28;20965;-75
2022/08/19 00:11:21;;;;;;;5.93;5.40;;;22.80;99.90;;;;;;5016253;28;20568;-74
2022/08/19 00:13:48;;;;;;;8.07;5.20;;;22.70;99.90;;;;;;5033275;28;20610;-74
2022/08/19 00:16:14;;;;;;;6.17;5.67;;;22.70;99.90;;;;;;5033564;28;20634;-74
2022/08/19 00:18:41;;;;;;;6.47;5.33;;;22.70;99.90;;;;;;5016417;28;20926;-75
2022/08/19 00:21:09;;;;;;;5.93;5.33;;;22.60;99.90;;;;;;5033375;28;20564;-75
2022/08/19 00:23:36;;;;;;;6.77;6.07;;;22.60;99.90;;;;;;5033712;28;20560;-74
2022/08/19 00:26:03;;;;;;;6.80;5.80;;;22.60;99.90;;;;;;5033471;28;20587;-74
2022/08/19 00:28:30;;;;;;;6.87;6.10;;;22.60;99.90;;;;;;5033594;28;21183;-74
2022/08/19 00:30:56;;;;;;;5.63;5.13;;;22.60;99.90;;;;;;5015909;28;20572;-74
2022/08/19 00:33:22;;;;;;;6.53;5.93;;;22.50;99.90;;;;;;5015246;28;20572;-75
2022/08/19 00:35:47;;;;;;;6.50;5.90;;;22.50;99.90;;;;;;5033385;28;20607;-75
2022/08/19 00:38:13;;;;;;;7.63;7.03;;;22.50;99.90;;;;;;5020582;28;20201;-75
2022/08/19 00:40:41;;;;;;;6.90;5.87;;;22.50;99.90;;;;;;5029037;28;20260;-80
2022/08/19 00:43:10;;;;;;;7.50;6.90;;;22.50;99.90;;;;;;5033380;28;20162;-80
2022/08/19 00:45:36;;;;;;;8.43;7.13;;;22.40;99.90;;;;;;5033297;28;20569;-81
2022/08/19 00:48:05;;;;;;;8.83;6.97;;;22.40;99.90;;;;;;5016780;28;20679;-81
2022/08/19 00:50:33;;;;;;;7.70;7.00;;;22.40;99.90;;;;;;5034202;28;20580;-81
2022/08/19 00:52:59;;;;;;;7.33;6.70;;;22.40;99.90;;;;;;5032900;28;20675;-81
2022/08/19 00:55:28;;;;;;;8.40;7.60;;;22.40;99.90;;;;;;5032997;28;20643;-80
2022/08/19 00:58:07;;;;;;;7.83;7.13;;;22.40;99.90;;;;;;5033077;28;20596;-80
2022/08/19 01:00:36;;;;;;;8.50;7.70;;;22.40;99.90;;;;;;5015479;28;20588;-79
2022/08/19 01:03:05;;;;;;;8.63;7.83;;;22.40;99.90;;;;;;5014897;28;20580;-80
2022/08/19 01:05:31;;;;;;;8.63;7.93;;;22.40;99.90;;;;;;5032926;28;20642;-82
2022/08/19 01:08:00;;;;;;;8.70;7.80;;;22.40;99.90;;;;;;5032832;28;20596;-80
2022/08/19 01:10:31;;;;;;;7.77;6.63;;;22.30;99.90;;;;;;5032901;28;21019;-80
2022/08/19 01:12:59;;;;;;;7.73;7.03;;;22.40;99.90;;;;;;5032480;28;20573;-80
2022/08/19 01:15:38;;;;;;;9.63;7.30;;;22.40;99.90;;;;;;5032751;28;20985;-81
2022/08/19 01:18:11;;;;;;;7.93;7.23;;;22.30;99.90;;;;;;5014667;28;20671;-80
2022/08/19 01:20:39;;;;;;;8.30;7.53;;;22.30;99.90;;;;;;5015090;28;20688;-81
2022/08/19 01:23:05;;;;;;;8.00;6.80;;;22.30;99.90;;;;;;5015392;28;21102;-81
2022/08/19 01:25:43;;;;;;;10.30;8.40;;;22.30;99.90;;;;;;5031606;28;20573;-81
2022/08/19 01:28:19;;;;;;;9.20;8.40;;;22.30;99.90;;;;;;5032454;28;20615;-81
2022/08/19 01:30:46;;;;;;;8.33;7.37;;;22.20;99.90;;;;;;5032790;28;20560;-74
2022/08/19 01:33:12;;;;;;;8.17;7.43;;;22.20;99.90;;;;;;5031868;28;20564;-74
2022/08/19 01:35:39;;;;;;;7.70;7.03;;;22.20;99.90;;;;;;5032180;28;20627;-73
2022/08/19 01:38:09;;;;;;;7.70;7.10;;;22.20;99.90;;;;;;5032065;28;20584;-73
2022/08/19 01:40:38;;;;;;;8.57;7.77;;;22.20;99.90;;;;;;5032147;28;20565;-74
2022/08/19 01:43:04;;;;;;;7.87;7.17;;;22.10;99.90;;;;;;5031579;28;20969;-74
2022/08/19 01:45:32;;;;;;;7.10;6.50;;;22.10;99.90;;;;;;5014471;28;20586;-73
2022/08/19 01:47:59;;;;;;;7.63;6.80;;;22.10;99.90;;;;;;5031940;28;20979;-73
2022/08/19 01:50:25;;;;;;;7.40;6.70;;;22.10;99.90;;;;;;5032047;28;21007;-74
2022/08/19 01:52:52;;;;;;;8.23;7.53;;;22.10;99.90;;;;;;5031473;28;20647;-73
2022/08/19 01:55:21;;;;;;;8.70;7.60;;;22.10;99.90;;;;;;5031817;28;20632;-74
2022/08/19 01:57:51;;;;;;;9.13;8.27;;;22.00;99.90;;;;;;5031849;28;20584;-73
2022/08/19 02:00:20;;;;;;;8.50;7.13;;;22.00;99.90;;;;;;5032598;28;20568;-74
2022/08/19 02:02:46;;;;;;;7.50;6.83;;;22.00;99.90;;;;;;5031185;28;20568;-74
2022/08/19 02:05:12;;;;;;;8.20;7.40;;;22.00;99.90;;;;;;5031623;28;20572;-73
2022/08/19 02:07:40;;;;;;;7.47;6.73;;;22.00;99.90;;;;;;5031732;28;20243;-74
2022/08/19 02:10:10;;;;;;;8.07;7.27;;;22.00;99.90;;;;;;5031705;28;21177;-73
2022/08/19 02:12:36;;;;;;;7.60;6.90;;;21.90;99.90;;;;;;5031200;28;20572;-73
2022/08/19 02:15:03;;;;;;;7.60;6.90;;;21.90;99.90;;;;;;5031523;28;20618;-73
2022/08/19 02:17:29;;;;;;;7.90;7.17;;;21.90;99.90;;;;;;5031444;28;20213;-74
2022/08/19 02:19:56;;;;;;;8.33;7.53;;;21.90;99.90;;;;;;5031530;28;20918;-73
2022/08/19 02:22:22;;;;;;;9.60;7.57;;;21.90;99.90;;;;;;5031039;28;20609;-73
2022/08/19 02:24:48;;;;;;;7.33;6.60;;;21.90;99.90;;;;;;5013938;28;20951;-74
2022/08/19 02:27:14;;;;;;;8.27;7.57;;;21.80;99.90;;;;;;5031435;28;20596;-74
2022/08/19 02:29:40;;;;;;;7.90;7.10;;;21.80;99.90;;;;;;5031351;28;21055;-74
2022/08/19 02:32:07;;;;;;;10.30;8.07;;;21.80;99.90;;;;;;5031106;28;20560;-74
2022/08/19 02:34:33;;;;;;;8.07;7.40;;;21.80;99.90;;;;;;5031310;28;20754;-74
2022/08/19 02:37:00;;;;;;;9.30;8.47;;;21.80;99.90;;;;;;5031298;28;21188;-74
2022/08/19 02:39:26;;;;;;;9.03;8.27;;;21.80;99.90;;;;;;5031331;28;20606;-73
2022/08/19 02:41:52;;;;;;;9.30;8.30;;;21.80;99.90;;;;;;5030984;28;21014;-74
2022/08/19 02:44:18;;;;;;;9.73;8.90;;;21.80;99.90;;;;;;5013655;28;20573;-74
2022/08/19 02:46:47;;;;;;;9.87;9.03;;;21.80;99.90;;;;;;5013346;28;21165;-74
2022/08/19 02:49:15;;;;;;;8.67;7.87;;;21.80;99.90;;;;;;5031317;28;20165;-74
2022/08/19 02:51:43;;;;;;;12.90;8.20;;;21.80;99.90;;;;;;5030803;28;20958;-74
2022/08/19 02:54:10;;;;;;;8.93;8.13;;;21.80;99.90;;;;;;5031096;28;20565;-74
2022/08/19 02:56:39;;;;;;;8.37;7.67;;;21.70;99.90;;;;;;5030965;28;21143;-74
2022/08/19 02:59:08;;;;;;;8.90;8.00;;;21.70;99.90;;;;;;5031047;28;20577;-73
2022/08/19 03:01:34;;;;;;;8.90;8.10;;;21.70;99.90;;;;;;5030622;28;20568;-74
2022/08/19 03:04:02;;;;;;;12.10;8.50;;;21.70;99.90;;;;;;5031222;28;20575;-74
2022/08/19 03:06:28;;;;;;;9.17;8.37;;;21.70;99.90;;;;;;5030920;28;20627;-74
2022/08/19 03:08:55;;;;;;;8.47;7.77;;;21.70;99.90;;;;;;5031165;28;21194;-74
2022/08/19 03:11:30;;;;;;;10.87;9.90;;;21.70;99.90;;;;;;5030765;28;20560;-74
2022/08/19 03:13:56;;;;;;;11.20;10.00;;;21.70;99.90;;;;;;5014067;28;20620;-74
2022/08/19 03:16:25;;;;;;;10.40;9.37;;;21.70;99.90;;;;;;5030650;28;20619;-74
2022/08/19 03:18:52;;;;;;;9.37;8.57;;;21.70;99.90;;;;;;5031175;28;20583;-73
2022/08/19 03:21:23;;;;;;;9.93;9.00;;;21.60;99.90;;;;;;5013022;28;20580;-74
2022/08/19 03:23:50;;;;;;;11.10;10.00;;;21.60;99.90;;;;;;5030855;28;20591;-74
2022/08/19 03:26:16;;;;;;;11.90;10.70;;;21.60;99.90;;;;;;5030980;28;20572;-74
2022/08/19 03:28:44;;;;;;;10.80;9.80;;;21.60;99.90;;;;;;5030868;28;20565;-74
2022/08/19 03:31:13;;;;;;;11.20;10.30;;;21.60;99.90;;;;;;5030637;28;20568;-74
2022/08/19 03:33:40;;;;;;;12.70;11.57;;;21.60;99.90;;;;;;5030826;28;20689;-74
2022/08/19 03:36:10;;;;;;;13.37;12.07;;;21.60;99.90;;;;;;5030716;28;20612;-74
2022/08/19 03:38:38;;;;;;;11.33;10.33;;;21.60;99.90;;;;;;5030790;28;20614;-74
2022/08/19 03:41:08;;;;;;;11.90;10.87;;;21.50;99.90;;;;;;5030741;28;20564;-74
2022/08/19 03:43:38;;;;;;;12.83;11.57;;;21.50;99.90;;;;;;5030696;28;20569;-74
2022/08/19 03:46:13;;;;;;;13.63;11.30;;;21.50;99.90;;;;;;5030940;28;21060;-74
2022/08/19 03:48:41;;;;;;;15.30;13.20;;;21.50;99.90;;;;;;5032397;28;21129;-74
2022/08/19 03:51:14;;;;;;;14.53;13.33;;;21.50;99.90;;;;;;5034082;28;20572;-74
2022/08/19 03:53:40;;;;;;;15.17;13.80;;;21.50;99.90;;;;;;5016399;28;20622;-74
2022/08/19 03:56:09;;;;;;;14.33;12.97;;;21.50;99.90;;;;;;5034057;28;20659;-74
2022/08/19 03:58:37;;;;;;;15.77;14.27;;;21.50;99.90;;;;;;5034133;28;20174;-74
2022/08/19 04:01:19;;;;;;;18.23;16.53;;;21.50;99.90;;;;;;5033890;28;20596;-74
2022/08/19 04:03:46;;;;;;;16.53;14.87;;;21.50;99.90;;;;;;5033977;28;21117;-74
2022/08/19 04:06:25;;;;;;;17.00;15.50;;;21.50;99.90;;;;;;5016003;28;20583;-74
2022/08/19 04:08:53;;;;;;;18.13;16.53;;;21.50;99.90;;;;;;5033765;28;20575;-73
2022/08/19 04:11:25;;;;;;;21.50;19.50;;;21.50;99.90;;;;;;5033483;28;20603;-73
2022/08/19 04:13:53;;;;;;;22.77;20.50;;;21.50;99.90;;;;;;5033819;28;20618;-73
2022/08/19 04:16:20;;;;;;;20.23;18.53;;;21.50;99.90;;;;;;5033467;28;20662;-73
2022/08/19 04:18:47;;;;;;;21.90;20.00;;;21.50;99.90;;;;;;5033766;28;20569;-73
2022/08/19 04:21:24;;;;;;;21.33;19.43;;;21.50;99.90;;;;;;5028946;28;20593;-73
2022/08/19 04:23:51;;;;;;;22.53;20.70;;;21.50;99.90;;;;;;5022127;28;20599;-73
2022/08/19 04:26:20;;;;;;;22.50;20.10;;;21.50;99.90;;;;;;5009114;28;20758;-73
2022/08/19 04:28:46;;;;;;;22.67;20.40;;;21.50;99.90;;;;;;5033528;28;20560;-73
2022/08/19 04:31:26;;;;;;;23.70;21.70;;;21.50;99.90;;;;;;5033264;28;20955;-73
2022/08/19 04:34:03;;;;;;;22.40;20.40;;;21.50;99.90;;;;;;5015815;28;20576;-74
2022/08/19 04:36:33;;;;;;;22.70;20.63;;;21.50;99.90;;;;;;5015825;28;20624;-73
2022/08/19 04:39:02;;;;;;;23.50;21.07;;;21.50;99.90;;;;;;5033121;28;20611;-74
2022/08/19 04:44:13;;;;;;;22.17;20.13;;;21.50;99.90;;;;;;5033333;28;21007;-73
2022/08/19 04:46:40;;;;;;;22.20;20.30;;;21.60;99.90;;;;;;5033083;28;20695;-73
2022/08/19 04:49:07;;;;;;;20.83;18.93;;;21.60;99.90;;;;;;5033219;28;20568;-73
2022/08/19 04:51:34;;;;;;;25.70;20.30;;;21.60;99.90;;;;;;5032469;28;20979;-73
2022/08/19 04:54:01;;;;;;;22.87;20.57;;;21.70;99.90;;;;;;5033198;28;20564;-73
2022/08/19 04:56:27;;;;;;;21.70;19.70;;;21.70;99.90;;;;;;5015281;28;20638;-74
2022/08/19 04:58:55;;;;;;;23.13;20.93;;;21.70;99.90;;;;;;5033007;28;21233;-73
2022/08/19 05:01:28;;;;;;;21.93;19.90;;;21.80;99.90;;;;;;5034377;28;20556;-73
2022/08/19 05:03:54;;;;;;;23.43;21.23;;;21.80;99.90;;;;;;5036091;28;20645;-73
2022/08/19 05:06:22;;;;;;;23.63;21.13;;;21.90;99.90;;;;;;5035285;28;20568;-73
2022/08/19 05:08:48;;;;;;;25.63;23.03;;;22.00;99.90;;;;;;5032925;28;21121;-73
2022/08/19 05:11:19;;;;;;;24.60;22.33;;;22.00;99.90;;;;;;5032798;28;20568;-74
2022/08/19 05:13:48;;;;;;;26.17;23.47;;;22.00;99.90;;;;;;5033077;28;21088;-73
2022/08/19 05:16:15;;;;;;;24.27;22.17;;;22.10;99.90;;;;;;5032209;28;20620;-74
2022/08/19 05:24:13;;;;;;;25.30;22.77;;;22.20;99.90;;;;;;5032511;28;20572;-74
2022/08/19 05:26:42;;;;;;;22.70;20.67;;;22.20;99.90;;;;;;5014267;28;20969;-74
2022/08/19 05:29:10;;;;;;;25.73;23.43;;;22.20;99.90;;;;;;5032406;28;20664;-73
2022/08/19 05:31:38;;;;;;;24.57;22.37;;;22.20;99.90;;;;;;5032067;28;20568;-73
2022/08/19 05:34:04;;;;;;;26.30;24.07;;;22.30;99.90;;;;;;4998282;28;20584;-73
2022/08/19 05:36:39;;;;;;;24.20;21.90;;;22.30;99.90;;;;;;5014423;28;20694;-73
2022/08/19 05:39:06;;;;;;;22.10;20.30;;;22.30;99.90;;;;;;5032333;28;20927;-73
2022/08/19 05:41:33;;;;;;;23.90;20.10;;;22.40;99.90;;;;;;5031962;28;20564;-73
2022/08/19 05:44:01;;;;;;;21.20;19.20;;;22.40;99.90;;;;;;5032113;28;20592;-73
2022/08/19 05:46:27;;;;;;;22.70;20.60;;;22.50;99.90;;;;;;5027091;28;20983;-73
2022/08/19 05:48:55;;;;;;;22.90;20.83;;;22.50;99.90;;;;;;5021262;28;20577;-73
2022/08/19 05:51:22;;;;;;;20.80;19.00;;;22.60;99.90;;;;;;5031554;28;20170;-73
2022/08/19 05:53:48;;;;;;;22.53;20.50;;;22.60;99.90;;;;;;5032036;28;20567;-73
2022/08/19 05:56:15;;;;;;;22.17;20.27;;;22.60;99.90;;;;;;5023462;28;20614;-73
2022/08/19 05:58:44;;;;;;;22.40;20.60;;;22.60;99.90;;;;;;4990560;28;20181;-73
2022/08/19 06:01:13;;;;;;;21.43;19.40;;;22.70;99.90;;;;;;4996556;28;20985;-74
2022/08/19 06:03:39;;;;;;;21.07;19.17;;;22.80;99.90;;;;;;5015642;28;20581;-73
2022/08/19 06:06:07;;;;;;;20.27;18.40;;;22.80;99.90;;;;;;5001787;28;20939;-74
2022/08/19 06:08:35;;;;;;;20.53;18.53;;;22.90;99.90;;;;;;5008307;28;21128;-74
2022/08/19 06:11:18;;;;;;;21.00;19.20;;;23.00;99.90;;;;;;4993614;28;20596;-73
2022/08/19 06:13:50;;;;;;;19.73;18.00;;;23.10;99.90;;;;;;5019059;28;21244;-74
2022/08/19 06:16:21;;;;;;;20.53;18.73;;;23.20;99.90;;;;;;4974590;28;20613;-74
2022/08/19 06:18:52;;;;;;;21.53;19.33;;;23.30;99.90;;;;;;4992297;28;20571;-74
2022/08/19 06:21:22;;;;;;;21.03;19.03;;;23.40;99.90;;;;;;5004131;28;20595;-74
2022/08/19 06:23:50;;;;;;;19.30;17.60;;;23.50;99.90;;;;;;5005474;28;21250;-74
2022/08/19 06:26:18;;;;;;;18.90;17.30;;;23.60;99.90;;;;;;5031446;28;20560;-74
2022/08/19 06:28:46;;;;;;;19.57;17.67;;;23.70;99.90;;;;;;5030390;28;20919;-74
2022/08/19 06:31:21;;;;;;;22.27;20.17;;;23.90;99.90;;;;;;5031022;28;20564;-74
2022/08/19 06:33:47;;;;;;;19.77;17.87;;;24.10;99.90;;;;;;5031245;28;20935;-74
2022/08/19 06:36:47;;;;;;;20.57;18.67;;;24.50;99.90;;;;;;5031264;28;20698;-74
2022/08/19 06:39:26;;;;;;;18.03;16.23;;;25.00;99.90;;;;;;4999779;28;20589;-74
2022/08/19 06:41:55;;;;;;;19.53;17.87;;;25.70;99.90;;;;;;5019664;28;20591;-74
2022/08/19 06:44:25;;;;;;;18.13;16.43;;;26.30;99.90;;;;;;5010816;28;20599;-74
2022/08/19 06:46:52;;;;;;;18.33;16.73;;;26.90;99.90;;;;;;5004329;28;20602;-73
2022/08/19 06:49:18;;;;;;;19.87;18.17;;;27.60;99.90;;;;;;5011520;28;20565;-73
2022/08/19 06:51:47;;;;;;;19.17;17.37;;;28.00;99.90;;;;;;5011212;28;20611;-73
2022/08/19 06:54:14;;;;;;;20.23;18.43;;;28.40;99.90;;;;;;4993689;28;21246;-73
2022/08/19 06:56:40;;;;;;;18.93;17.07;;;28.60;99.90;;;;;;4992854;28;20637;-74
2022/08/19 06:59:14;;;;;;;16.13;14.63;;;28.60;99.90;;;;;;5009870;28;21098;-74
2022/08/19 07:01:45;;;;;;;17.33;15.60;;;28.60;99.90;;;;;;5009711;28;20183;-74
2022/08/19 07:04:12;;;;;;;17.27;15.80;;;28.60;99.90;;;;;;5010595;28;20568;-74
2022/08/19 07:06:38;;;;;;;18.10;16.50;;;28.70;99.90;;;;;;5009877;28;20976;-74
2022/08/19 07:09:08;;;;;;;19.10;16.67;;;28.70;99.90;;;;;;4993364;28;20565;-73
2022/08/19 07:11:34;;;;;;;15.93;14.53;;;28.60;99.90;;;;;;4993457;28;20181;-74
2022/08/19 07:14:01;;;;;;;17.20;15.70;;;28.60;99.90;;;;;;5011467;28;20627;-73
2022/08/19 07:16:27;;;;;;;15.60;14.30;;;28.70;99.90;;;;;;5011058;28;20720;-74
2022/08/19 07:18:53;;;;;;;18.00;16.10;;;28.60;99.90;;;;;;4961494;28;20569;-74
2022/08/19 07:21:27;;;;;;;15.20;13.87;;;28.60;99.90;;;;;;5011090;28;20660;-73
2022/08/19 07:23:54;;;;;;;16.40;15.00;;;28.70;99.90;;;;;;4979404;28;20185;-74
2022/08/19 07:26:27;;;;;;;17.10;15.60;;;28.80;99.90;;;;;;5015064;28;20573;-74
2022/08/19 07:28:53;;;;;;;17.20;15.53;;;28.80;99.90;;;;;;5015008;28;20998;-73
2022/08/19 07:31:22;;;;;;;16.10;14.70;;;28.80;99.90;;;;;;5014517;28;20932;-74
2022/08/19 07:33:50;;;;;;;16.77;15.07;;;28.90;99.90;;;;;;5015263;28;20676;-72
2022/08/19 07:36:19;;;;;;;17.57;15.97;;;28.90;99.90;;;;;;5014625;28;20625;-72
2022/08/19 07:38:48;;;;;;;16.87;15.23;;;28.90;99.90;;;;;;5014615;28;20609;-72
2022/08/19 07:41:17;;;;;;;17.23;15.40;;;28.80;99.90;;;;;;4996999;28;20624;-73
2022/08/19 07:43:44;;;;;;;17.80;16.10;;;28.70;99.90;;;;;;4996951;28;20579;-73
2022/08/19 07:46:13;;;;;;;18.37;16.87;;;28.60;99.90;;;;;;5016621;28;21147;-72
2022/08/19 07:48:41;;;;;;;17.73;16.23;;;28.50;99.90;;;;;;5016076;28;20596;-72
2022/08/19 07:51:09;;;;;;;16.53;15.17;;;28.50;99.90;;;;;;5014050;28;20600;-73
2022/08/19 07:53:36;;;;;;;19.67;17.57;;;28.40;99.90;;;;;;5012844;28;20954;-73
2022/08/19 07:56:04;;;;;;;20.50;17.37;;;28.30;99.90;;;;;;5015205;28;20727;-72
2022/08/19 07:58:32;;;;;;;20.57;18.50;;;28.30;99.90;;;;;;4997452;28;20664;-73
2022/08/19 08:00:59;;;;;;;21.00;18.87;;;28.20;99.90;;;;;;5004756;28;20581;-72
2022/08/19 08:09:10;;;;;;;20.33;18.53;;;28.10;99.90;;;;;;5021004;28;20571;-72
2022/08/19 08:09:11;;;;;;;23.13;20.83;;;28.00;99.90;;;;;;5012789;28;20565;-71
2022/08/19 08:11:39;;;;;;;22.07;20.00;;;27.90;99.90;;;;;;4996196;28;20611;-71
2022/08/19 08:14:06;;;;;;;23.50;21.30;;;27.90;99.90;;;;;;5013910;28;20578;-71
2022/08/19 08:16:37;;;;;;;23.83;21.60;;;27.80;99.90;;;;;;5013763;28;20635;-71
2022/08/19 08:19:06;;;;;;;24.47;21.97;;;27.80;99.90;;;;;;4996457;28;20565;-72
2022/08/19 08:21:33;;;;;;;24.80;22.50;;;27.80;99.90;;;;;;5013715;28;20565;-72
2022/08/19 08:23:59;;;;;;;22.90;20.80;;;27.90;99.90;;;;;;5013764;28;20565;-71
2022/08/19 08:26:26;;;;;;;23.63;21.50;;;28.10;99.90;;;;;;5013766;28;20959;-72
2022/08/19 08:28:52;;;;;;;22.20;20.20;;;28.40;99.90;;;;;;4996306;28;20178;-72
2022/08/19 08:31:18;;;;;;;23.80;21.40;;;28.70;99.90;;;;;;5013299;28;20689;-73
2022/08/19 08:33:45;;;;;;;25.60;23.20;;;29.10;99.90;;;;;;5013360;28;20628;-71
2022/08/19 08:36:13;;;;;;;23.60;21.40;;;29.60;99.90;;;;;;5013441;28;21017;-71
2022/08/19 08:38:41;;;;;;;26.30;23.73;;;30.10;99.90;;;;;;5013638;28;20919;-71
2022/08/19 08:41:19;;;;;;;25.20;22.90;;;30.60;99.90;;;;;;5013539;28;20569;-72
2022/08/19 08:43:48;;;;;;;24.83;22.53;;;31.20;99.90;;;;;;5013731;28;20574;-72
2022/08/19 08:46:25;;;;;;;23.40;21.20;;;31.90;99.90;;;;;;5013601;28;20688;-72
2022/08/19 08:49:23;;;;;;;25.03;22.83;;;32.50;99.90;;;;;;4979657;28;20600;-73
2022/08/19 08:52:01;;;;;;;24.10;21.93;;;33.10;99.30;;;;;;5012892;28;20564;-71
2022/08/19 08:54:39;;;;;;;26.47;24.00;;;33.50;97.80;;;;;;5013204;28;20662;-72
2022/08/19 08:57:13;;;;;;;23.83;21.53;;;33.80;96.20;;;;;;5013032;28;20616;-71
2022/08/19 08:59:41;;;;;;;24.70;22.37;;;34.10;95.30;;;;;;5013019;28;20630;-72
2022/08/19 09:02:08;;;;;;;21.30;19.47;;;34.50;94.60;;;;;;5012819;28;20565;-71
2022/08/19 09:04:35;;;;;;;23.17;20.93;;;34.90;93.80;;;;;;5013076;28;20572;-71
2022/08/19 09:07:19;;;;;;;22.60;20.50;;;35.30;92.30;;;;;;5012897;28;20593;-71
2022/08/19 09:09:50;;;;;;;20.97;19.07;;;35.70;91.10;;;;;;5013012;28;20605;-71
2022/08/19 09:12:38;;;;;;;21.13;19.23;;;36.10;90.30;;;;;;5012578;28;20673;-71
2022/08/19 09:15:08;;;;;;;20.63;18.90;;;36.30;87.70;;;;;;4979086;28;20622;-71
2022/08/19 09:17:35;;;;;;;18.80;17.10;;;36.40;84.00;;;;;;5010627;28;20633;-71
2022/08/19 09:20:10;;;;;;;19.10;17.40;;;36.60;82.70;;;;;;5013763;28;20590;-71
2022/08/19 09:22:43;;;;;;;17.03;15.53;;;36.80;79.10;;;;;;5014742;28;20576;-71
2022/08/19 09:25:12;;;;;;;17.67;16.07;;;37.00;76.30;;;;;;5012767;28;21017;-71
2022/08/19 09:27:39;;;;;;;17.83;15.67;;;37.20;76.40;;;;;;5030665;28;20592;-71
2022/08/19 09:30:08;;;;;;;17.07;15.70;;;37.30;75.10;;;;;;5014576;28;20580;-72
2022/08/19 09:32:35;;;;;;;17.30;15.90;;;37.50;73.20;;;;;;5023807;28;20584;-71
2022/08/19 09:35:01;;;;;;;18.90;17.10;;;37.60;70.50;;;;;;5018704;28;21018;-72
2022/08/19 09:37:27;;;;;;;16.73;15.13;;;37.80;70.00;;;;;;5006101;28;20667;-72
2022/08/19 09:39:53;;;;;;;14.83;13.63;;;38.10;68.20;;;;;;5011577;28;20573;-72
2022/08/19 09:42:19;;;;;;;15.07;13.77;;;38.50;67.60;;;;;;5012914;28;20260;-72
2022/08/19 09:44:46;;;;;;;15.73;14.37;;;38.80;65.70;;;;;;5021741;28;20580;-72
2022/08/19 09:47:13;;;;;;;14.10;13.00;;;39.10;64.30;;;;;;5009425;28;20635;-72
2022/08/19 09:49:40;;;;;;;14.30;13.00;;;39.50;63.10;;;;;;5007840;28;20596;-72
2022/08/19 09:52:08;;;;;;;13.50;12.30;;;39.80;59.50;;;;;;5021428;28;20616;-72
2022/08/19 09:54:34;;;;;;;12.33;10.70;;;40.00;57.90;;;;;;5015928;28;20584;-72
2022/08/19 09:57:00;;;;;;;11.20;10.30;;;39.90;55.70;;;;;;5000563;28;20711;-72
2022/08/19 09:59:27;;;;;;;11.23;10.23;;;39.90;55.40;;;;;;5002514;28;20225;-72
2022/08/19 10:01:54;;;;;;;9.60;8.90;;;40.00;54.80;;;;;;5011613;28;20573;-72
2022/08/19 10:04:20;;;;;;;12.13;11.13;;;40.30;54.60;;;;;;4994601;28;20596;-72
2022/08/19 10:06:48;;;;;;;11.27;9.70;;;40.50;53.60;;;;;;5011999;28;20701;-72
2022/08/19 10:09:16;;;;;;;9.63;8.83;;;40.50;53.10;;;;;;4993631;28;20592;-73
2022/08/19 10:11:49;;;;;;;8.53;7.83;;;40.70;52.50;;;;;;5022919;28;20592;-73
2022/08/19 10:14:16;;;;;;;9.00;7.03;;;40.90;50.70;;;;;;5016779;28;20587;-72
2022/08/19 10:16:43;;;;;;;7.70;7.10;;;40.90;50.20;;;;;;5013657;28;20708;-73
2022/08/19 10:19:09;;;;;;;7.90;7.03;;;41.00;49.70;;;;;;5014074;28;20560;-73
2022/08/19 10:21:35;;;;;;;9.70;6.60;;;40.90;48.70;;;;;;5031400;28;20573;-73
2022/08/19 10:24:04;;;;;;;9.97;9.00;;;40.60;48.30;;;;;;5008073;28;20588;-73
2022/08/19 10:26:41;;;;;;;10.53;9.70;;;40.30;47.80;;;;;;5008396;28;20617;-72
2022/08/19 10:29:07;;;;;;;9.53;8.77;;;40.10;47.60;;;;;;5031493;28;20564;-72
2022/08/19 10:31:34;;;;;;;10.43;9.50;;;39.80;47.90;;;;;;5031112;28;21177;-73
2022/08/19 10:34:00;;;;;;;9.93;9.10;;;39.50;48.10;;;;;;5031297;28;20623;-73
2022/08/19 10:36:30;;;;;;;8.93;8.30;;;39.20;47.40;;;;;;5008161;28;20695;-72
2022/08/19 10:39:01;;;;;;;10.93;9.93;;;38.90;47.10;;;;;;5002149;28;21163;-73
2022/08/19 10:41:30;;;;;;;11.10;10.07;;;38.40;47.00;;;;;;5025055;28;20574;-73
2022/08/19 10:43:58;;;;;;;11.00;9.90;;;38.00;47.50;;;;;;5031285;28;20622;-72
2022/08/19 10:46:26;;;;;;;10.90;9.97;;;37.80;48.30;;;;;;4991963;28;21177;-73
2022/08/19 10:48:53;;;;;;;10.83;9.70;;;37.60;48.10;;;;;;5015998;28;20596;-73
2022/08/19 10:54:04;;;;;;;12.30;11.30;;;37.40;49.10;;;;;;5031370;28;20918;-72
2022/08/19 10:59:16;;;;;;;12.80;11.70;;;37.50;49.60;;;;;;5017596;28;20580;-72
2022/08/19 11:01:44;;;;;;;11.90;10.80;;;37.60;49.70;;;;;;5017214;28;20580;-72
2022/08/19 11:04:13;;;;;;;10.80;9.80;;;37.70;49.40;;;;;;5001028;28;20580;-71
2022/08/19 11:06:43;;;;;;;11.57;10.60;;;37.80;49.40;;;;;;5035260;28;20687;-71
2022/08/19 11:09:11;;;;;;;12.40;11.37;;;37.80;48.90;;;;;;5035011;28;20610;-71
2022/08/19 11:11:40;;;;;;;12.70;11.50;;;37.80;48.70;;;;;;5034630;28;20596;-71
2022/08/19 11:14:11;;;;;;;10.00;8.93;;;37.80;48.40;;;;;;5019576;28;20585;-71
2022/08/19 11:16:38;;;;;;;9.40;8.60;;;37.70;48.00;;;;;;4992235;28;20645;-71
2022/08/19 11:19:07;;;;;;;9.37;8.47;;;37.70;48.00;;;;;;5019135;28;20572;-70
2022/08/19 11:21:39;;;;;;;6.83;6.23;;;37.70;48.00;;;;;;5029321;28;20632;-71
2022/08/19 11:24:15;;;;;;;7.27;6.67;;;37.80;47.90;;;;;;5017085;28;20563;-71
2022/08/19 11:26:42;;;;;;;6.53;6.03;;;37.90;47.70;;;;;;5034628;28;20634;-71
2022/08/19 11:29:13;;;;;;;7.70;7.10;;;38.10;47.70;;;;;;5016817;28;20630;-71
2022/08/19 11:31:42;;;;;;;8.93;8.03;;;38.20;47.50;;;;;;5016423;28;20568;-72
2022/08/19 11:34:11;;;;;;;7.47;6.87;;;38.10;46.60;;;;;;5012008;28;20572;-72
2022/08/19 11:36:40;;;;;;;8.37;7.67;;;37.80;46.10;;;;;;4997098;28;20646;-72
2022/08/19 11:39:09;;;;;;;7.30;6.63;;;37.60;46.40;;;;;;5014755;28;20585;-72
2022/08/19 11:41:35;;;;;;;7.70;6.90;;;37.50;46.50;;;;;;5014240;28;20593;-74
2022/08/19 11:44:04;;;;;;;7.47;6.87;;;37.30;46.10;;;;;;4996982;28;20668;-74
2022/08/19 11:46:32;;;;;;;6.20;5.60;;;37.20;46.10;;;;;;5014614;28;20597;-74
2022/08/19 11:49:00;;;;;;;6.93;6.43;;;37.10;46.70;;;;;;5014601;28;20570;-77
2022/08/19 11:51:29;;;;;;;6.63;6.03;;;37.20;47.00;;;;;;5014142;28;20577;-75
2022/08/19 11:53:57;;;;;;;7.07;6.47;;;37.30;46.80;;;;;;5014494;28;21138;-77
2022/08/19 11:56:25;;;;;;;6.83;5.97;;;37.30;46.20;;;;;;4995226;28;20644;-76
2022/08/19 11:58:52;;;;;;;5.60;5.10;;;37.10;45.90;;;;;;5013189;28;20932;-76
2022/08/19 12:01:19;;;;;;;6.23;5.70;;;37.00;45.80;;;;;;5017653;28;20618;-76
2022/08/19 12:03:46;;;;;;;7.03;6.20;;;36.80;45.80;;;;;;5022404;28;21134;-75
2022/08/19 12:06:15;;;;;;;6.77;6.00;;;36.60;45.60;;;;;;5020994;28;20595;-75
2022/08/19 12:08:42;;;;;;;6.73;6.13;;;36.50;45.80;;;;;;5010327;28;20585;-75
2022/08/19 12:11:10;;;;;;;7.60;6.80;;;36.20;45.50;;;;;;4994859;28;20611;-76
2022/08/19 12:13:38;;;;;;;7.20;6.40;;;36.00;45.60;;;;;;4998989;28;20977;-76
2022/08/19 12:16:22;;;;;;;8.00;7.40;;;35.80;45.70;;;;;;4976708;28;21313;-75
2022/08/19 12:18:50;;;;;;;6.60;6.00;;;35.50;46.00;;;;;;5018469;28;20592;-76
2022/08/19 12:21:24;;;;;;;6.40;5.80;;;35.50;46.60;;;;;;5026041;28;20706;-75
2022/08/19 12:23:51;;;;;;;5.37;4.87;;;35.40;46.60;;;;;;5019299;28;20623;-75
2022/08/19 12:26:18;;;;;;;8.30;7.60;;;35.30;47.20;;;;;;5003047;28;21010;-75
2022/08/19 12:28:44;;;;;;;7.07;6.47;;;35.40;47.20;;;;;;4996115;28;20585;-76
2022/08/19 12:31:13;;;;;;;7.20;6.60;;;35.30;47.20;;;;;;5013419;28;20568;-76
2022/08/19 12:33:41;;;;;;;7.77;7.07;;;35.20;46.70;;;;;;5013565;28;20565;-75
2022/08/19 12:36:09;;;;;;;6.63;5.90;;;35.20;46.90;;;;;;4995810;28;20640;-75
2022/08/19 12:38:35;;;;;;;6.83;6.23;;;35.10;47.10;;;;;;5012307;28;20947;-75
2022/08/19 12:41:05;;;;;;;8.33;6.83;;;35.10;46.80;;;;;;5018541;28;20578;-75
2022/08/19 12:43:31;;;;;;;6.97;6.03;;;34.90;46.30;;;;;;5017436;28;20590;-75
2022/08/19 12:45:57;;;;;;;6.77;6.17;;;34.70;46.30;;;;;;5023313;28;20588;-75
2022/08/19 12:48:23;;;;;;;7.10;6.50;;;34.40;46.40;;;;;;5026552;28;21190;-75
2022/08/19 12:50:49;;;;;;;6.87;6.17;;;34.20;46.20;;;;;;5032939;28;20571;-75
2022/08/19 12:53:15;;;;;;;6.80;5.80;;;33.90;46.20;;;;;;5032679;28;20178;-74
2022/08/19 12:55:42;;;;;;;7.57;6.20;;;33.70;46.50;;;;;;5032681;28;20202;-75
2022/08/19 12:58:08;;;;;;;6.20;5.70;;;33.50;46.80;;;;;;5032806;28;20748;-75
2022/08/19 13:00:34;;;;;;;6.00;5.50;;;33.30;47.00;;;;;;5015737;28;21030;-75